Time;durP1;ratioP1;P1;durP2;ratioP2;P2;SDS_P1;SDS_P2;PMS_P1;PMS_P2;Temp;Humidity;BMP_temperature;BMP_pressure;BME280_temperature;BME280_humidity;BME280_pressure;Samples;Min_cycle;Max_cycle;Signal;HPM_P1;HPM_P2
2022/06/09 00:01:34;;;;;;;5.43;4.93;;;18.00;1.00;;;;;;5047479;28;20189;-87
2022/06/09 00:04:05;;;;;;;5.68;5.05;;;18.00;1.00;;;;;;5032314;28;20273;-84
2022/06/09 00:06:40;;;;;;;6.22;5.05;;;18.00;1.00;;;;;;5032326;28;20185;-85
2022/06/09 00:09:08;;;;;;;5.45;4.80;;;18.00;1.00;;;;;;5032247;28;20551;-85
2022/06/09 00:11:38;;;;;;;6.30;5.43;;;18.00;1.00;;;;;;5032514;28;20222;-87
2022/06/09 00:14:06;;;;;;;5.72;5.13;;;18.00;1.00;;;;;;5032510;28;20235;-87
2022/06/09 00:16:34;;;;;;;6.32;5.43;;;18.00;1.00;;;;;;5032455;28;20578;-85
2022/06/09 00:19:01;;;;;;;6.80;5.10;;;17.90;1.00;;;;;;5032292;28;20201;-85
2022/06/09 00:21:28;;;;;;;6.18;5.57;;;17.90;1.00;;;;;;5032619;28;20193;-85
2022/06/09 00:23:57;;;;;;;5.93;5.28;;;17.90;1.00;;;;;;5032300;28;20209;-88
2022/06/09 00:26:24;;;;;;;7.72;5.60;;;17.90;1.00;;;;;;5031863;28;20667;-85
2022/06/09 00:28:51;;;;;;;6.88;5.22;;;17.90;1.00;;;;;;5032396;28;20202;-85
2022/06/09 00:31:18;;;;;;;5.95;5.25;;;17.80;1.00;;;;;;5031852;28;20224;-85
2022/06/09 00:33:45;;;;;;;6.93;5.57;;;17.80;1.00;;;;;;5032315;28;20291;-85
2022/06/09 00:36:13;;;;;;;5.55;5.05;;;17.90;1.00;;;;;;5032221;28;20200;-87
2022/06/09 00:38:40;;;;;;;7.63;5.82;;;17.90;1.00;;;;;;5032224;28;20224;-87
2022/06/09 00:41:08;;;;;;;6.20;5.60;;;17.90;1.00;;;;;;5032137;28;20197;-84
2022/06/09 00:43:36;;;;;;;6.25;5.32;;;17.90;1.00;;;;;;5032161;28;20212;-86
2022/06/09 00:46:14;;;;;;;5.47;4.97;;;17.90;1.00;;;;;;5032046;28;20204;-86
2022/06/09 00:48:44;;;;;;;6.43;5.15;;;17.90;1.00;;;;;;5031823;28;20185;-86
2022/06/09 00:51:25;;;;;;;7.30;5.20;;;17.90;1.00;;;;;;5031972;28;20678;-87
2022/06/09 00:53:56;;;;;;;6.32;5.72;;;17.90;1.00;;;;;;5031773;28;20197;-87
2022/06/09 00:56:25;;;;;;;6.47;5.45;;;17.90;1.00;;;;;;5032003;28;20182;-86
2022/06/09 00:58:55;;;;;;;6.15;5.55;;;17.80;1.00;;;;;;5031645;28;20199;-86
2022/06/09 01:01:24;;;;;;;8.35;6.07;;;17.70;1.00;;;;;;5032006;28;20189;-86
2022/06/09 01:03:55;;;;;;;6.57;5.97;;;17.70;1.00;;;;;;5031577;28;20233;-87
2022/06/09 01:06:27;;;;;;;9.18;5.70;;;17.70;1.00;;;;;;5032011;28;20189;-87
2022/06/09 01:09:01;;;;;;;6.93;6.00;;;17.60;1.00;;;;;;5031934;28;20235;-86
2022/06/09 01:11:29;;;;;;;6.30;5.70;;;17.60;1.00;;;;;;5032051;28;20209;-85
2022/06/09 01:13:58;;;;;;;9.50;6.00;;;17.50;1.00;;;;;;5032050;28;20201;-87
2022/06/09 01:16:29;;;;;;;11.48;6.47;;;17.50;1.00;;;;;;5032102;28;20617;-88
2022/06/09 01:19:12;;;;;;;7.43;6.25;;;17.40;1.00;;;;;;5032096;28;20242;-86
2022/06/09 01:22:13;;;;;;;6.60;5.97;;;17.40;1.00;;;;;;5031545;28;20516;-88
2022/06/09 01:25:09;;;;;;;9.50;5.97;;;17.30;1.00;;;;;;5031464;28;20201;-86
2022/06/09 01:27:59;;;;;;;8.20;6.63;;;17.30;1.00;;;;;;5031766;28;20596;-85
2022/06/09 01:30:39;;;;;;;7.43;6.15;;;17.20;1.00;;;;;;5031722;28;20196;-86
2022/06/09 01:33:12;;;;;;;6.68;6.07;;;17.10;1.00;;;;;;5031368;28;20566;-86
2022/06/09 01:35:45;;;;;;;9.45;5.90;;;17.00;1.00;;;;;;5045910;28;20188;-86
2022/06/09 01:38:12;;;;;;;7.07;6.38;;;17.00;1.00;;;;;;5054744;28;20240;-85
2022/06/09 01:40:39;;;;;;;9.25;6.57;;;16.90;3.00;;;;;;5055252;28;20203;-87
2022/06/09 01:43:07;;;;;;;7.57;6.45;;;16.80;51.80;;;;;;5055331;28;20259;-87
2022/06/09 01:45:41;;;;;;;8.02;6.47;;;16.80;99.90;;;;;;5054871;28;20684;-88
2022/06/09 01:48:11;;;;;;;8.10;6.50;;;16.70;99.90;;;;;;5055284;28;20594;-86
2022/06/09 01:50:40;;;;;;;;;;;16.60;99.90;;;;;;5055212;28;20077;-85
2022/06/09 01:53:10;;;;;;;7.67;6.77;;;16.50;99.90;;;;;;5055063;28;20181;-85
2022/06/09 01:55:43;;;;;;;8.27;6.67;;;16.30;99.90;;;;;;5054637;28;20219;-84
2022/06/09 01:58:12;;;;;;;9.63;7.30;;;16.20;99.90;;;;;;5055086;28;20188;-85
2022/06/09 02:00:41;;;;;;;11.40;7.20;;;16.10;99.90;;;;;;5054940;28;20208;-86
2022/06/09 02:03:13;;;;;;;9.17;7.23;;;15.90;1.00;;;;;;5054423;28;20598;-85
2022/06/09 02:05:44;;;;;;;8.13;7.23;;;15.80;1.00;;;;;;5054563;28;20184;-88
2022/06/09 02:08:20;;;;;;;8.90;7.17;;;15.70;1.00;;;;;;5054596;28;20635;-87
2022/06/09 02:10:54;;;;;;;8.30;7.47;;;15.60;1.00;;;;;;5054848;28;20189;-86
2022/06/09 02:13:26;;;;;;;9.17;7.57;;;15.60;1.00;;;;;;5054514;28;20241;-85
2022/06/09 02:16:04;;;;;;;8.97;7.27;;;15.50;1.00;;;;;;5054713;28;20288;-87
2022/06/09 02:18:37;;;;;;;10.20;7.83;;;15.50;1.00;;;;;;5054738;28;20192;-85
2022/06/09 02:21:08;;;;;;;8.60;7.67;;;15.50;1.00;;;;;;5054529;28;20237;-88
2022/06/09 02:23:36;;;;;;;10.10;8.17;;;15.40;1.00;;;;;;5054216;28;20183;-87
2022/06/09 02:26:04;;;;;;;8.07;7.27;;;15.40;1.00;;;;;;5054117;28;20715;-87
2022/06/09 02:28:31;;;;;;;8.47;7.67;;;15.30;1.00;;;;;;5054163;28;20204;-87
2022/06/09 02:31:00;;;;;;;8.37;7.53;;;15.30;1.00;;;;;;5054683;28;20195;-85
2022/06/09 02:33:27;;;;;;;8.60;7.57;;;15.30;89.80;;;;;;5054551;28;20203;-87
2022/06/09 02:35:54;;;;;;;11.27;8.13;;;15.30;55.90;;;;;;5054140;28;20207;-85
2022/06/09 02:38:22;;;;;;;11.27;7.93;;;15.20;99.90;;;;;;5054030;28;20221;-86
2022/06/09 02:40:50;;;;;;;10.73;8.57;;;15.20;99.90;;;;;;5053980;28;20202;-88
2022/06/09 02:43:17;;;;;;;9.30;7.73;;;15.20;99.90;;;;;;5054194;28;20196;-85
2022/06/09 02:45:44;;;;;;;10.13;8.73;;;15.10;99.90;;;;;;5054214;28;20203;-84
2022/06/09 02:48:13;;;;;;;8.80;7.90;;;15.10;99.90;;;;;;5053719;28;20202;-86
2022/06/09 02:50:41;;;;;;;9.20;8.03;;;15.10;99.90;;;;;;5054082;28;20204;-87
2022/06/09 02:53:08;;;;;;;8.37;7.50;;;15.10;99.90;;;;;;5053690;28;20226;-88
2022/06/09 02:55:36;;;;;;;9.30;7.90;;;15.00;99.90;;;;;;5053912;28;20207;-85
2022/06/09 02:58:03;;;;;;;10.23;7.90;;;15.00;1.00;;;;;;5063552;28;20235;-89
2022/06/09 03:00:30;;;;;;;8.47;7.43;;;14.90;1.00;;;;;;5053871;28;20633;-86
2022/06/09 03:02:59;;;;;;;8.83;7.93;;;14.90;1.00;;;;;;5053830;28;20279;-87
2022/06/09 03:05:30;;;;;;;9.73;8.23;;;14.90;1.00;;;;;;5053648;28;20195;-87
2022/06/09 03:08:06;;;;;;;9.57;8.40;;;15.00;1.00;;;;;;5045300;28;20192;-87
2022/06/09 03:10:33;;;;;;;10.63;8.03;;;14.90;99.90;;;;;;5033649;28;20231;-84
2022/06/09 03:13:01;;;;;;;9.30;7.50;;;14.90;1.00;;;;;;5033516;28;20696;-86
2022/06/09 03:15:40;;;;;;;7.90;7.10;;;15.00;10.40;;;;;;5054983;28;20202;-89
2022/06/09 03:18:32;;;;;;;8.60;7.70;;;14.90;46.80;;;;;;5058271;28;20180;-87
2022/06/09 03:21:02;;;;;;;8.70;7.70;;;14.90;99.90;;;;;;5033387;28;20226;-86
2022/06/09 03:23:29;;;;;;;15.83;7.87;;;15.00;99.90;;;;;;5033780;28;20228;-87
2022/06/09 03:26:06;;;;;;;9.10;7.73;;;15.00;99.90;;;;;;5034992;28;20200;-90
2022/06/09 03:28:33;;;;;;;12.63;8.07;;;15.10;99.90;;;;;;5033771;28;20658;-87
2022/06/09 03:31:00;;;;;;;8.13;7.33;;;15.10;99.90;;;;;;5033607;28;20207;-88
2022/06/09 03:33:28;;;;;;;9.13;8.23;;;15.10;99.90;;;;;;5033782;28;20214;-89
2022/06/09 03:35:55;;;;;;;8.83;7.93;;;15.20;99.90;;;;;;5033525;28;20559;-88
2022/06/09 03:38:23;;;;;;;9.03;8.20;;;15.20;1.00;;;;;;5033588;28;20199;-86
2022/06/09 03:40:50;;;;;;;8.83;7.93;;;15.20;1.00;;;;;;5033080;28;20775;-86
2022/06/09 03:43:17;;;;;;;8.37;7.57;;;15.30;99.90;;;;;;5033982;28;20194;-87
2022/06/09 03:45:44;;;;;;;7.50;6.70;;;15.70;1.00;;;;;;5033139;28;20208;-87
2022/06/09 03:48:12;;;;;;;7.72;6.35;;;16.50;99.90;;;;;;5033066;28;20197;-88
2022/06/09 03:50:39;;;;;;;6.72;6.07;;;17.50;1.00;;;;;;5033105;28;20548;-85
2022/06/09 03:53:06;;;;;;;7.03;5.97;;;18.50;1.00;;;;;;5032737;28;20198;-88
2022/06/09 03:55:35;;;;;;;6.80;6.10;;;19.40;1.00;;;;;;5032888;28;20123;-87
2022/06/09 03:58:10;;;;;;;6.13;5.53;;;20.40;1.00;;;;;;5037336;28;20228;-87
2022/06/09 04:00:37;;;;;;;6.10;5.35;;;21.40;99.90;;;;;;5040825;28;20177;-87
2022/06/09 04:03:04;;;;;;;;;;;22.60;1.00;;;;;;5032802;28;19974;-85
2022/06/09 04:05:32;;;;;;;5.57;5.07;;;23.40;1.00;;;;;;5032894;28;20378;-87
2022/06/09 04:07:59;;;;;;;;;;;24.10;1.00;;;;;;5033421;28;20063;-87
2022/06/09 04:10:30;;;;;;;5.82;5.32;;;24.60;99.90;;;;;;5032525;28;20650;-86
2022/06/09 04:12:59;;;;;;;5.32;4.93;;;25.10;99.90;;;;;;5034869;28;20213;-84
2022/06/09 04:15:27;;;;;;;7.22;5.38;;;25.60;99.90;;;;;;5032291;28;20186;-87
2022/06/09 04:17:54;;;;;;;5.80;5.30;;;26.30;99.90;;;;;;5032659;28;20598;-87
2022/06/09 04:20:23;;;;;;;6.05;5.10;;;27.10;99.90;;;;;;5032688;28;20243;-84
2022/06/09 04:22:49;;;;;;;;;;;27.70;41.60;;;;;;5032918;28;20049;-86
2022/06/09 04:25:17;;;;;;;;;;;28.30;1.00;;;;;;5032618;28;20133;-87
2022/06/09 04:27:44;;;;;;;5.60;5.10;;;28.80;1.00;;;;;;5032573;28;20215;-88
2022/06/09 04:30:14;;;;;;;7.38;5.40;;;29.20;1.00;;;;;;5032448;28;20601;-85
2022/06/09 04:32:41;;;;;;;8.88;5.60;;;29.60;1.00;;;;;;5032008;28;20599;-87
2022/06/09 04:35:09;;;;;;;6.57;5.00;;;30.10;1.00;;;;;;5031966;28;20197;-86
2022/06/09 04:40:21;;;;;;;5.88;5.30;;;30.90;1.00;;;;;;5032111;28;20239;-86
2022/06/09 04:42:48;;;;;;;6.13;5.40;;;31.20;1.00;;;;;;5031921;28;20194;-85
2022/06/09 04:45:17;;;;;;;6.28;5.68;;;31.40;1.00;;;;;;5032207;28;20201;-85
2022/06/09 04:47:44;;;;;;;5.70;5.20;;;31.50;1.00;;;;;;5031775;28;20240;-85
2022/06/09 04:50:12;;;;;;;5.93;5.32;;;31.50;1.00;;;;;;5032088;28;20201;-85
2022/06/09 04:52:39;;;;;;;5.68;5.10;;;31.80;1.00;;;;;;5032032;28;20283;-88
2022/06/09 04:55:08;;;;;;;5.57;5.05;;;32.30;1.00;;;;;;5032126;28;20640;-86
2022/06/09 04:57:35;;;;;;;5.80;5.30;;;32.60;1.00;;;;;;5031696;28;20189;-86
2022/06/09 05:00:02;;;;;;;6.47;5.32;;;33.00;1.00;;;;;;5032056;28;20202;-86
2022/06/09 05:02:31;;;;;;;6.15;5.28;;;33.30;1.00;;;;;;5032033;28;20226;-85
2022/06/09 05:04:58;;;;;;;5.38;4.97;;;33.60;1.00;;;;;;5045995;28;20185;-91
2022/06/09 05:07:25;;;;;;;5.90;5.10;;;34.00;1.00;;;;;;5051857;28;20200;-90
2022/06/09 05:09:52;;;;;;;5.70;5.10;;;34.40;1.00;;;;;;5050838;28;20202;-89
2022/06/09 05:12:19;;;;;;;5.13;4.68;;;34.80;1.00;;;;;;5053729;28;20208;-90
2022/06/09 05:14:46;;;;;;;5.57;4.57;;;35.30;1.00;;;;;;5056221;28;20200;-89
2022/06/09 05:17:13;;;;;;;5.38;4.88;;;35.90;1.00;;;;;;5056032;28;20227;-90
2022/06/09 05:19:42;;;;;;;7.95;5.05;;;36.40;1.00;;;;;;5054991;28;20658;-91
2022/06/09 05:22:09;;;;;;;5.32;4.82;;;36.90;1.00;;;;;;5055340;28;20610;-91
2022/06/09 05:24:36;;;;;;;4.38;3.97;;;37.30;1.00;;;;;;5055871;28;20261;-90
2022/06/09 05:27:03;;;;;;;7.95;5.03;;;37.50;1.00;;;;;;5056043;28;20200;-89
2022/06/09 05:29:30;;;;;;;4.93;4.30;;;37.70;1.00;;;;;;5058158;28;20196;-89
2022/06/09 05:31:57;;;;;;;5.32;4.50;;;37.80;1.00;;;;;;5055511;28;20712;-89
2022/06/09 05:34:24;;;;;;;7.60;4.95;;;38.10;1.00;;;;;;5055834;28;20251;-92
2022/06/09 05:36:53;;;;;;;6.43;4.30;;;38.40;1.00;;;;;;5055517;28;20604;-90
2022/06/09 05:44:52;;;;;;;4.93;3.72;;;39.30;1.00;;;;;;5055552;28;20549;-89
2022/06/09 05:47:21;;;;;;;8.63;3.88;;;39.70;1.00;;;;;;5055227;28;20701;-89
2022/06/09 05:49:48;;;;;;;7.30;4.28;;;39.80;1.00;;;;;;5055113;28;20196;-89
2022/06/09 05:52:18;;;;;;;4.55;4.05;;;39.60;1.00;;;;;;5055134;28;20204;-89
2022/06/09 05:54:45;;;;;;;4.53;4.13;;;38.70;1.00;;;;;;5055289;28;20266;-91
2022/06/09 05:57:12;;;;;;;5.30;4.25;;;37.70;1.00;;;;;;5055183;28;20586;-89
2022/06/09 05:59:39;;;;;;;;;;;36.80;1.00;;;;;;5055725;28;20068;-90
2022/06/09 06:02:08;;;;;;;5.88;5.25;;;35.90;1.00;;;;;;5055403;28;20221;-88
2022/06/09 06:04:36;;;;;;;5.40;4.90;;;35.00;1.00;;;;;;5055086;28;20658;-87
2022/06/09 06:07:03;;;;;;;7.85;4.93;;;34.20;1.00;;;;;;5055220;28;20197;-89
2022/06/09 06:09:31;;;;;;;7.90;5.00;;;33.60;1.00;;;;;;5055031;28;20205;-87
2022/06/09 06:11:58;;;;;;;6.82;4.95;;;33.10;1.00;;;;;;5054766;28;20205;-89
2022/06/09 06:14:26;;;;;;;6.28;5.20;;;32.90;1.00;;;;;;5054615;28;20196;-88
2022/06/09 06:16:53;;;;;;;;;;;32.90;1.00;;;;;;5055214;28;20663;-89
2022/06/09 06:19:22;;;;;;;5.30;4.80;;;33.30;1.00;;;;;;5054565;28;20406;-89
2022/06/09 06:21:50;;;;;;;6.93;5.97;;;33.70;1.00;;;;;;5054575;28;20561;-88
2022/06/09 06:24:18;;;;;;;6.78;5.65;;;34.30;1.00;;;;;;5054345;28;20212;-91
2022/06/09 06:26:47;;;;;;;5.72;4.68;;;35.30;1.00;;;;;;5054848;28;20211;-89
2022/06/09 06:29:19;;;;;;;6.45;4.50;;;36.30;1.00;;;;;;5054679;28;20207;-92
2022/06/09 06:31:46;;;;;;;5.10;4.47;;;37.10;1.00;;;;;;5054447;28;20553;-89
2022/06/09 06:34:14;;;;;;;6.53;4.82;;;37.60;1.00;;;;;;5054350;28;20196;-89
2022/06/09 06:36:41;;;;;;;8.07;5.53;;;38.10;1.00;;;;;;5054269;28;20235;-91
2022/06/09 06:39:08;;;;;;;9.60;5.68;;;38.80;1.00;;;;;;5054444;28;20561;-89
2022/06/09 06:41:35;;;;;;;6.75;5.45;;;39.30;1.00;;;;;;5054672;28;20812;-91
2022/06/09 06:44:04;;;;;;;6.78;5.10;;;39.50;1.00;;;;;;5054239;28;20209;-90
2022/06/09 06:46:31;;;;;;;7.13;5.40;;;39.80;1.00;;;;;;5054297;28;20197;-89
2022/06/09 06:48:58;;;;;;;6.13;4.78;;;40.30;1.00;;;;;;5054382;28;20197;-91
2022/06/09 06:51:25;;;;;;;5.43;4.82;;;40.60;1.00;;;;;;5053993;28;20318;-90
2022/06/09 06:53:52;;;;;;;5.50;4.97;;;40.60;1.00;;;;;;5054029;28;20189;-89
2022/06/09 06:56:19;;;;;;;4.78;4.22;;;40.40;1.00;;;;;;5054089;28;20254;-89
2022/06/09 06:58:46;;;;;;;5.45;4.90;;;40.00;1.00;;;;;;5054046;28;20258;-89
2022/06/09 07:01:15;;;;;;;8.82;5.18;;;39.70;1.00;;;;;;5054101;28;20245;-89
2022/06/09 07:03:42;;;;;;;6.03;5.43;;;39.10;1.00;;;;;;5053605;28;20521;-89
2022/06/09 07:06:09;;;;;;;7.05;5.63;;;38.20;1.00;;;;;;5054199;28;20230;-88
2022/06/09 07:08:36;;;;;;;6.25;5.68;;;37.20;1.00;;;;;;5053912;28;20270;-91
2022/06/09 07:11:04;;;;;;;10.02;6.20;;;36.30;1.00;;;;;;5053896;28;20670;-88
2022/06/09 07:13:31;;;;;;;7.07;6.38;;;35.50;1.00;;;;;;5053646;28;20250;-88
2022/06/09 07:15:58;;;;;;;7.28;6.57;;;34.90;1.00;;;;;;5053891;28;20250;-91
2022/06/09 07:18:27;;;;;;;7.03;6.32;;;34.90;1.00;;;;;;5053579;28;20200;-89
2022/06/09 07:20:54;;;;;;;7.05;6.35;;;35.20;1.00;;;;;;5053772;28;20250;-88
2022/06/09 07:23:22;;;;;;;6.95;6.25;;;35.60;1.00;;;;;;5053656;28;20216;-88
2022/06/09 07:25:49;;;;;;;7.43;6.63;;;36.20;1.00;;;;;;5053698;28;20192;-91
2022/06/09 07:28:34;;;;;;;10.35;7.68;;;36.90;1.00;;;;;;5066850;28;20436;-91
2022/06/09 07:31:04;;;;;;;7.15;5.78;;;37.60;1.00;;;;;;5065186;28;20235;-89
2022/06/09 07:33:36;;;;;;;6.60;6.00;;;38.10;1.00;;;;;;5055330;28;20185;-88
2022/06/09 07:36:05;;;;;;;6.53;5.93;;;38.40;1.00;;;;;;5052812;28;20254;-89
2022/06/09 07:38:33;;;;;;;6.22;5.63;;;38.70;1.00;;;;;;5053417;28;20262;-89
2022/06/09 07:41:00;;;;;;;7.03;6.32;;;39.00;1.00;;;;;;5053541;28;20197;-87
2022/06/09 07:43:27;;;;;;;5.68;5.18;;;39.30;1.00;;;;;;5053174;28;20246;-86
2022/06/09 07:45:54;;;;;;;5.50;5.00;;;39.70;1.00;;;;;;5052802;28;20242;-87
2022/06/09 07:48:21;;;;;;;5.95;4.97;;;39.80;1.00;;;;;;5053217;28;20200;-89
2022/06/09 07:50:51;;;;;;;6.15;4.90;;;39.80;1.00;;;;;;5054823;28;20661;-90
2022/06/09 07:53:19;;;;;;;5.18;4.70;;;39.80;1.00;;;;;;5053233;28;20264;-91
2022/06/09 07:55:46;;;;;;;6.97;5.97;;;39.80;1.00;;;;;;5053189;28;20201;-89
2022/06/09 07:58:14;;;;;;;5.30;4.90;;;39.90;1.00;;;;;;5053377;28;20650;-90
2022/06/09 08:00:42;;;;;;;5.40;4.90;;;39.80;1.00;;;;;;5052912;28;20208;-89
2022/06/09 08:03:11;;;;;;;5.38;4.88;;;39.60;1.00;;;;;;5052626;28;20235;-89
2022/06/09 08:05:38;;;;;;;4.93;4.53;;;39.20;1.00;;;;;;5052592;28;20204;-89
2022/06/09 08:08:07;;;;;;;6.28;4.90;;;38.50;1.00;;;;;;5052975;28;20258;-90
2022/06/09 08:10:36;;;;;;;7.03;5.40;;;37.90;1.00;;;;;;5052548;28;20616;-90
2022/06/09 08:13:04;;;;;;;7.50;5.30;;;37.20;1.00;;;;;;5052640;28;20717;-88
2022/06/09 08:15:33;;;;;;;5.45;4.97;;;36.70;1.00;;;;;;5052767;28;20203;-89
2022/06/09 08:18:01;;;;;;;10.23;5.10;;;36.30;1.00;;;;;;5052847;28;20258;-90
2022/06/09 08:20:37;;;;;;;7.22;4.55;;;36.00;1.00;;;;;;5052734;28;20196;-91
2022/06/09 08:23:09;;;;;;;6.00;5.50;;;35.70;1.00;;;;;;5053920;28;20196;-87
2022/06/09 08:25:37;;;;;;;6.50;5.00;;;35.30;1.00;;;;;;5052646;28;20250;-87
2022/06/09 08:28:05;;;;;;;7.30;5.65;;;35.00;1.00;;;;;;5052512;28;20196;-87
2022/06/09 08:30:34;;;;;;;5.22;4.78;;;35.10;1.00;;;;;;5052297;28;20199;-88
2022/06/09 08:33:01;;;;;;;5.75;4.40;;;35.30;1.00;;;;;;5052547;28;20200;-89
2022/06/09 08:35:29;;;;;;;4.45;4.00;;;35.50;1.00;;;;;;5052566;28;20192;-87
2022/06/09 08:37:56;;;;;;;4.05;3.70;;;35.70;1.00;;;;;;5052314;28;20612;-87
2022/06/09 08:40:29;;;;;;;5.25;3.50;;;35.80;1.00;;;;;;5052083;28;20204;-87
2022/06/09 08:43:15;;;;;;;3.95;3.65;;;36.00;1.00;;;;;;5052457;28;20188;-88
2022/06/09 08:45:43;;;;;;;3.85;3.55;;;36.30;1.00;;;;;;5052483;28;20552;-88
2022/06/09 08:48:16;;;;;;;4.00;3.70;;;36.20;1.00;;;;;;5052178;28;20205;-88
2022/06/09 08:50:49;;;;;;;4.78;4.38;;;36.10;1.00;;;;;;5052686;28;20180;-89
2022/06/09 08:53:22;;;;;;;5.25;3.58;;;35.70;1.00;;;;;;5052535;28;20173;-87
2022/06/09 08:55:53;;;;;;;4.53;4.10;;;35.30;1.00;;;;;;5051979;28;20177;-90
2022/06/09 08:58:25;;;;;;;4.57;4.00;;;35.10;1.00;;;;;;5052260;28;20188;-87
2022/06/09 09:01:03;;;;;;;8.35;7.10;;;35.20;1.00;;;;;;5051980;28;20192;-90
2022/06/09 09:03:35;;;;;;;18.77;10.05;;;35.20;1.00;;;;;;5051806;28;20235;-87
2022/06/09 09:06:07;;;;;;;20.17;11.23;;;35.20;1.00;;;;;;5051899;28;20196;-88
2022/06/09 09:08:34;;;;;;;54.33;28.65;;;34.90;1.00;;;;;;5052158;28;20177;-87
2022/06/09 09:11:30;;;;;;;22.67;11.98;;;34.70;1.00;;;;;;5051792;28;20199;-88
2022/06/09 09:14:01;;;;;;;6.38;4.70;;;34.90;1.00;;;;;;5052346;28;20188;-88
2022/06/09 09:16:36;;;;;;;4.72;4.32;;;35.20;1.00;;;;;;5052034;28;20180;-87
2022/06/09 09:19:12;;;;;;;14.43;9.55;;;35.50;1.00;;;;;;5052087;28;20215;-86
2022/06/09 09:21:51;;;;;;;17.42;10.45;;;35.60;1.00;;;;;;5051950;28;20208;-89
2022/06/09 09:24:29;;;;;;;13.15;9.57;;;35.60;1.00;;;;;;5052056;28;20740;-87
2022/06/09 09:27:17;;;;;;;5.82;5.30;;;35.40;1.00;;;;;;5051951;28;20203;-87
2022/06/09 09:30:02;;;;;;;8.27;5.20;;;35.20;1.00;;;;;;5051870;28;20254;-89
2022/06/09 09:32:37;;;;;;;11.13;5.55;;;34.90;1.00;;;;;;5051989;28;20551;-87
2022/06/09 09:35:10;;;;;;;8.75;6.20;;;34.70;1.00;;;;;;5051977;28;20177;-87
2022/06/09 09:37:40;;;;;;;10.65;5.40;;;34.40;1.00;;;;;;5051863;28;20189;-87
2022/06/09 09:40:17;;;;;;;5.97;5.38;;;34.20;1.00;;;;;;5051617;28;20634;-87
2022/06/09 09:42:46;;;;;;;7.55;5.22;;;33.80;1.00;;;;;;5051895;28;20185;-87
2022/06/09 09:45:19;;;;;;;6.97;6.30;;;33.30;1.00;;;;;;5051417;28;20219;-89
2022/06/09 09:47:50;;;;;;;7.57;5.80;;;33.10;1.00;;;;;;5052112;28;20615;-86
2022/06/09 09:50:26;;;;;;;6.35;5.68;;;32.90;1.00;;;;;;5053832;28;20279;-87
2022/06/09 09:52:59;;;;;;;7.25;6.53;;;32.80;1.00;;;;;;5051425;28;20185;-87
2022/06/09 09:55:33;;;;;;;5.93;5.43;;;32.60;1.00;;;;;;5051666;28;20644;-89
2022/06/09 09:58:23;;;;;;;6.15;5.35;;;32.50;1.00;;;;;;5054702;28;20190;-87
2022/06/09 10:00:52;;;;;;;6.40;5.60;;;32.50;1.00;;;;;;5057700;28;20181;-86
2022/06/09 10:09:10;;;;;;;5.00;4.60;;;31.70;1.00;;;;;;5055036;28;20181;-88
2022/06/09 10:11:58;;;;;;;5.93;5.32;;;31.60;1.00;;;;;;5054861;28;20169;-86
2022/06/09 10:14:43;;;;;;;4.90;4.50;;;31.40;1.00;;;;;;5054644;28;20197;-87
2022/06/09 10:17:41;;;;;;;5.70;4.97;;;31.20;1.00;;;;;;5054990;28;20280;-88
2022/06/09 10:20:21;;;;;;;5.00;4.60;;;30.80;1.00;;;;;;4998975;28;20197;-86
2022/06/09 10:22:58;;;;;;;5.97;5.38;;;30.50;1.00;;;;;;5054902;28;20177;-88
2022/06/09 10:25:32;;;;;;;5.15;4.65;;;30.30;1.00;;;;;;5054305;28;20254;-87
2022/06/09 10:28:05;;;;;;;6.18;4.75;;;30.20;1.00;;;;;;5054414;28;20199;-86
2022/06/09 10:30:38;;;;;;;5.93;5.03;;;30.10;1.00;;;;;;5054668;28;20185;-86
2022/06/09 10:33:12;;;;;;;7.97;5.18;;;30.10;1.00;;;;;;5054355;28;20177;-85
2022/06/09 10:35:47;;;;;;;6.10;5.47;;;30.10;1.00;;;;;;5054684;28;20239;-87
2022/06/09 10:38:21;;;;;;;6.53;5.90;;;30.00;1.00;;;;;;5054308;28;20192;-86
2022/06/09 10:40:53;;;;;;;6.07;5.55;;;30.00;1.00;;;;;;5054286;28;20623;-86
2022/06/09 10:43:27;;;;;;;6.88;6.18;;;30.00;1.00;;;;;;5054437;28;20627;-86
2022/06/09 10:46:01;;;;;;;6.90;6.20;;;30.10;1.00;;;;;;5054430;28;20205;-86
2022/06/09 10:57:10;;;;;;;8.23;5.90;;;29.50;1.00;;;;;;5054042;28;20261;-88
2022/06/09 10:59:42;;;;;;;6.15;5.65;;;29.30;1.00;;;;;;5053861;28;20239;-88
2022/06/09 11:02:17;;;;;;;6.28;5.68;;;29.20;1.00;;;;;;5053705;28;20620;-87
2022/06/09 11:04:46;;;;;;;7.50;5.85;;;29.00;1.00;;;;;;5053751;28;20230;-88
2022/06/09 11:07:39;;;;;;;9.63;6.38;;;28.90;1.00;;;;;;5054017;28;20254;-89
2022/06/09 11:10:24;;;;;;;7.70;5.97;;;28.90;1.00;;;;;;5053943;28;20273;-86
2022/06/09 11:13:03;;;;;;;7.75;6.28;;;28.80;1.00;;;;;;5053869;28;20208;-85
2022/06/09 11:15:35;;;;;;;7.15;6.45;;;28.60;1.00;;;;;;5053918;28;20187;-86
2022/06/09 11:18:26;;;;;;;5.88;5.38;;;28.50;1.00;;;;;;5053812;28;20211;-85
2022/06/09 11:21:12;;;;;;;7.07;5.57;;;28.30;1.00;;;;;;5053919;28;20243;-85
2022/06/09 11:24:13;;;;;;;8.82;6.03;;;28.10;1.00;;;;;;5053335;28;20192;-85
2022/06/09 11:26:50;;;;;;;6.50;5.90;;;28.00;1.00;;;;;;5053609;28;20269;-87
2022/06/09 11:29:48;;;;;;;8.77;5.47;;;27.80;1.00;;;;;;5053220;28;20959;-87
2022/06/09 11:32:22;;;;;;;6.40;5.82;;;27.70;1.00;;;;;;5056290;28;20236;-88
2022/06/09 11:35:10;;;;;;;7.25;5.55;;;27.50;1.00;;;;;;5053390;28;20272;-86
2022/06/09 11:37:49;;;;;;;6.20;5.45;;;27.40;1.00;;;;;;5053542;28;20278;-87
2022/06/09 11:40:29;;;;;;;6.95;5.47;;;27.30;1.00;;;;;;5053585;28;20267;-89
2022/06/09 11:43:07;;;;;;;6.47;5.88;;;27.30;1.00;;;;;;5053392;28;20260;-87
2022/06/09 11:45:38;;;;;;;5.90;5.30;;;27.30;1.00;;;;;;5053001;28;20215;-87
2022/06/09 11:48:11;;;;;;;10.32;6.13;;;27.30;1.00;;;;;;5053379;28;20188;-89
2022/06/09 11:50:43;;;;;;;6.35;5.75;;;27.40;1.00;;;;;;5053163;28;20185;-88
2022/06/09 11:53:17;;;;;;;6.05;5.45;;;27.50;1.00;;;;;;5052958;28;20189;-89
2022/06/09 11:56:00;;;;;;;8.07;5.38;;;27.50;1.00;;;;;;5053177;28;20177;-88
2022/06/09 11:58:48;;;;;;;7.23;5.40;;;27.50;1.00;;;;;;5053426;28;20185;-88
2022/06/09 12:01:42;;;;;;;8.07;5.40;;;27.60;1.00;;;;;;5053376;28;20407;-88
2022/06/09 12:04:35;;;;;;;9.77;5.20;;;27.60;1.00;;;;;;5044355;28;20311;-89
2022/06/09 12:07:38;;;;;;;7.55;5.45;;;27.70;1.00;;;;;;5052974;28;20192;-88
2022/06/09 12:10:40;;;;;;;5.60;5.03;;;27.70;1.00;;;;;;5052575;28;20276;-88
2022/06/09 12:13:18;;;;;;;9.23;5.88;;;27.70;1.00;;;;;;5018815;28;20284;-87
2022/06/09 12:15:51;;;;;;;6.50;5.47;;;27.70;1.00;;;;;;5052654;28;20174;-87
2022/06/09 12:18:35;;;;;;;8.05;5.70;;;27.80;1.00;;;;;;5052510;28;20188;-88
2022/06/09 12:21:12;;;;;;;7.88;6.07;;;27.80;1.00;;;;;;5052257;28;20231;-88
2022/06/09 12:23:43;;;;;;;8.20;6.43;;;27.70;1.00;;;;;;5052352;28;20645;-85
2022/06/09 12:26:43;;;;;;;6.40;5.80;;;27.60;1.00;;;;;;5052163;28;20292;-87
2022/06/09 12:29:23;;;;;;;7.20;5.70;;;27.50;1.00;;;;;;5052339;28;20221;-87
2022/06/09 12:32:25;;;;;;;6.40;5.80;;;27.50;1.00;;;;;;5052047;28;20185;-86
2022/06/09 12:34:54;;;;;;;7.35;5.55;;;27.60;1.00;;;;;;5051389;28;20192;-87
2022/06/09 12:37:24;;;;;;;6.30;5.50;;;27.80;1.00;;;;;;5052188;28;20235;-87
2022/06/09 12:39:56;;;;;;;5.95;5.22;;;28.00;1.00;;;;;;5052301;28;20181;-87
2022/06/09 12:42:27;;;;;;;6.18;5.57;;;28.10;1.00;;;;;;5051966;28;20181;-87
2022/06/09 12:45:02;;;;;;;5.60;5.10;;;28.20;1.00;;;;;;5052102;28;20292;-86
2022/06/09 12:47:29;;;;;;;6.03;5.32;;;28.30;1.00;;;;;;5052391;28;20268;-87
2022/06/09 12:49:58;;;;;;;5.70;5.10;;;28.50;1.00;;;;;;5047809;28;20197;-87
2022/06/09 12:52:33;;;;;;;7.43;5.30;;;28.50;1.00;;;;;;5040040;28;20267;-89
2022/06/09 12:55:06;;;;;;;6.20;5.07;;;28.50;1.00;;;;;;5049330;28;20215;-86
2022/06/09 12:57:43;;;;;;;7.93;5.40;;;28.60;1.00;;;;;;5036411;28;20181;-86
2022/06/09 13:00:18;;;;;;;5.50;4.95;;;28.50;1.00;;;;;;5034357;28;20224;-87
2022/06/09 13:02:48;;;;;;;7.45;5.07;;;28.50;1.00;;;;;;5031835;28;20253;-87
2022/06/09 13:05:20;;;;;;;5.30;4.80;;;28.30;1.00;;;;;;5032019;28;20288;-87
2022/06/09 13:07:52;;;;;;;7.47;4.80;;;28.20;1.00;;;;;;5032105;28;20213;-87
2022/06/09 13:10:24;;;;;;;7.72;4.60;;;28.10;1.00;;;;;;5039964;28;20188;-86
2022/06/09 13:12:57;;;;;;;6.28;4.43;;;28.00;1.00;;;;;;5029620;28;20240;-86
2022/06/09 13:15:34;;;;;;;4.68;4.13;;;27.80;1.00;;;;;;5037740;28;20535;-87
2022/06/09 13:18:05;;;;;;;4.90;4.43;;;27.50;1.00;;;;;;5051913;28;20184;-87
2022/06/09 13:20:32;;;;;;;5.97;4.68;;;27.30;1.00;;;;;;5046694;28;20186;-86
2022/06/09 13:23:00;;;;;;;4.97;4.53;;;27.00;1.00;;;;;;5032111;28;20221;-87
2022/06/09 13:25:29;;;;;;;7.20;4.45;;;26.80;1.00;;;;;;5033279;28;20289;-87
2022/06/09 13:27:57;;;;;;;10.00;4.95;;;26.60;1.00;;;;;;5042611;28;20225;-87
2022/06/09 13:30:42;;;;;;;7.15;5.10;;;26.40;1.00;;;;;;5031589;28;20201;-87
2022/06/09 13:33:30;;;;;;;12.98;5.13;;;26.30;1.00;;;;;;5041987;28;20555;-85
2022/06/09 13:36:16;;;;;;;5.43;4.70;;;26.10;1.00;;;;;;5055460;28;20220;-86
2022/06/09 13:38:44;;;;;;;5.40;4.55;;;26.00;1.00;;;;;;5042238;28;20217;-89
2022/06/09 13:41:20;;;;;;;5.15;4.30;;;25.90;1.00;;;;;;5038675;28;20186;-88
2022/06/09 13:43:50;;;;;;;5.20;4.67;;;25.80;1.00;;;;;;5044849;28;20288;-87
2022/06/09 13:46:22;;;;;;;6.07;4.25;;;25.80;1.00;;;;;;5048596;28;20291;-87